KADS/ADS METAR and TAF weather

Enter ICAO airport designator
Station Type Date Time Source
KADS METAR 2021/07/28 02:47 UTC NOAA

KADS 280247Z 10008KT 10SM SCT110 31/20 A3000 RMK LAST WX


Station Type Date Time Source
KADS Decoded METAR 2021/07/28 02:47 UTC NOAA

Dallas / Addison Airport, TX, United States (KADS) 32-58N 096-50W
Jul 27, 2021 - 10:47 PM EDT / 2021.07.28 0247 UTC
Wind: from the E (100 degrees) at 9 MPH (8 KT):0
Visibility: 10 mile(s):0
Sky conditions: partly cloudy
Temperature: 87 F (31 C)
Dew Point: 68 F (20 C)
Relative Humidity: 52%
Pressure (altimeter): 30 in. Hg (1015 hPa)
ob: KADS 280247Z 10008KT 10SM SCT110 31/20 A3000 RMK LAST WX
cycle: 3

Station Type Date Time Source
KADS TAF UTC NOAA

Error!

Example: see airport list